createdAt,value
2022-12-06T00:02:22.774Z,4.95
2022-12-06T00:04:55.409Z,5.10
2022-12-06T00:07:27.338Z,4.50
2022-12-06T00:10:00.193Z,4.80
2022-12-06T00:12:32.187Z,5.15
2022-12-06T00:15:05.296Z,4.95
2022-12-06T00:17:42.785Z,4.73
2022-12-06T00:20:15.060Z,5.18
2022-12-06T00:22:48.142Z,5.63
2022-12-06T00:25:20.172Z,5.50
2022-12-06T00:27:52.755Z,6.55
2022-12-06T00:30:24.803Z,5.30
2022-12-06T00:32:57.491Z,5.40
2022-12-06T00:35:29.447Z,5.65
2022-12-06T00:38:02.082Z,5.30
2022-12-06T00:40:34.039Z,4.97
2022-12-06T00:43:06.644Z,5.47
2022-12-06T00:45:38.963Z,5.18
2022-12-06T00:48:11.585Z,5.50
2022-12-06T00:50:43.574Z,5.63
2022-12-06T00:53:16.834Z,5.30
2022-12-06T00:55:49.265Z,5.03
2022-12-06T00:58:22.865Z,5.38
2022-12-06T01:00:54.874Z,5.55
2022-12-06T01:03:32.103Z,6.07
2022-12-06T01:06:11.137Z,5.75
2022-12-06T01:08:44.222Z,6.00
2022-12-06T01:11:16.998Z,5.85
2022-12-06T01:13:50.812Z,6.18
2022-12-06T01:16:26.265Z,6.15
2022-12-06T01:19:02.333Z,6.00
2022-12-06T01:21:34.479Z,5.37
2022-12-06T01:24:07.572Z,5.85
2022-12-06T01:26:39.481Z,5.85
2022-12-06T01:29:12.328Z,5.55
2022-12-06T01:31:44.234Z,6.25
2022-12-06T01:34:18.042Z,5.40
2022-12-06T01:36:50.429Z,5.93
2022-12-06T01:39:23.025Z,5.95
2022-12-06T01:41:54.971Z,5.70
2022-12-06T01:44:55.585Z,5.53
2022-12-06T01:47:41.199Z,5.90
2022-12-06T01:50:26.076Z,5.63
2022-12-06T01:53:04.264Z,6.32
2022-12-06T01:55:39.874Z,5.90
2022-12-06T01:58:17.962Z,6.43
2022-12-06T02:00:50.768Z,5.37
2022-12-06T02:03:27.957Z,5.57
2022-12-06T02:06:07.163Z,5.57
2022-12-06T02:08:39.401Z,5.30
2022-12-06T02:11:12.656Z,5.18
2022-12-06T02:13:45.841Z,5.20
2022-12-06T02:17:03.377Z,5.20
2022-12-06T02:19:45.497Z,5.13
2022-12-06T02:23:00.220Z,4.90
2022-12-06T02:26:07.111Z,4.97
2022-12-06T02:29:16.249Z,4.33
2022-12-06T02:31:58.740Z,5.45
2022-12-06T02:34:40.271Z,5.55
2022-12-06T02:37:24.434Z,5.20
2022-12-06T02:40:08.858Z,5.40
2022-12-06T02:42:46.459Z,4.70
2022-12-06T02:45:24.080Z,5.00
2022-12-06T02:48:02.191Z,5.22
2022-12-06T02:50:43.897Z,4.85
2022-12-06T02:53:19.960Z,5.07
2022-12-06T02:55:53.293Z,5.03
2022-12-06T02:58:26.057Z,5.05
2022-12-06T03:01:01.581Z,4.68
2022-12-06T03:03:47.815Z,5.03
2022-12-06T03:06:40.941Z,4.60
2022-12-06T03:09:37.817Z,4.70
2022-12-06T03:12:30.924Z,4.78
2022-12-06T03:15:29.139Z,5.00
2022-12-06T03:18:20.895Z,5.00
2022-12-06T03:21:09.141Z,5.28
2022-12-06T03:23:47.146Z,4.80
2022-12-06T03:26:24.055Z,4.97
2022-12-06T03:28:59.575Z,5.22
2022-12-06T03:31:35.154Z,4.50
2022-12-06T03:34:16.667Z,7.13
2022-12-06T03:36:50.936Z,5.00
2022-12-06T03:39:36.203Z,5.05
2022-12-06T03:42:09.569Z,5.50
2022-12-06T03:44:42.590Z,6.03
2022-12-06T03:47:21.382Z,6.00
2022-12-06T03:50:01.528Z,4.70
2022-12-06T03:52:34.126Z,4.78
2022-12-06T03:55:07.740Z,5.22
2022-12-06T03:57:40.043Z,4.93
2022-12-06T04:00:12.999Z,5.22
2022-12-06T04:02:45.982Z,4.47
2022-12-06T04:05:18.650Z,4.63
2022-12-06T04:07:51.411Z,5.30
2022-12-06T04:10:24.241Z,4.90
2022-12-06T04:13:02.819Z,4.53
2022-12-06T04:15:38.545Z,4.53
2022-12-06T04:18:14.414Z,5.07
2022-12-06T04:21:11.074Z,4.88
2022-12-06T04:23:48.076Z,4.18
2022-12-06T04:26:22.588Z,4.97
2022-12-06T04:29:13.414Z,4.40
2022-12-06T04:32:04.083Z,4.18
2022-12-06T04:34:54.525Z,4.38
2022-12-06T04:37:45.618Z,4.57
2022-12-06T04:40:18.308Z,4.68
2022-12-06T04:43:08.461Z,4.87
2022-12-06T04:45:41.161Z,4.45
2022-12-06T04:48:13.078Z,5.10
2022-12-06T04:50:51.956Z,4.70
2022-12-06T04:53:23.868Z,4.10
2022-12-06T04:55:56.850Z,4.47
2022-12-06T04:58:29.250Z,4.75
2022-12-06T05:01:01.630Z,4.47
2022-12-06T05:03:36.423Z,4.28
2022-12-06T05:06:12.552Z,4.88
2022-12-06T05:08:44.984Z,4.93
2022-12-06T05:11:17.499Z,4.32
2022-12-06T05:13:50.270Z,4.03
2022-12-06T05:16:22.218Z,4.13
2022-12-06T05:18:55.359Z,4.28
2022-12-06T05:21:27.641Z,4.20
2022-12-06T05:23:59.713Z,3.80
2022-12-06T05:26:32.532Z,4.60
2022-12-06T05:29:04.715Z,4.47
2022-12-06T05:31:37.890Z,5.20
2022-12-06T05:34:11.018Z,4.20
2022-12-06T05:36:45.798Z,4.30
2022-12-06T05:39:17.736Z,4.32
2022-12-06T05:41:50.843Z,5.05
2022-12-06T05:44:22.731Z,5.25
2022-12-06T05:46:55.830Z,6.33
2022-12-06T05:49:28.091Z,5.55
2022-12-06T05:52:03.960Z,5.03
2022-12-06T05:54:36.489Z,4.70
2022-12-06T05:57:11.514Z,5.00
2022-12-06T05:59:44.243Z,4.73
2022-12-06T06:02:16.260Z,4.70
2022-12-06T06:04:49.085Z,5.05
2022-12-06T06:07:20.985Z,4.72
2022-12-06T06:09:53.714Z,4.50
2022-12-06T06:12:25.901Z,5.10
2022-12-06T06:14:58.664Z,5.03
2022-12-06T06:17:31.314Z,5.63
2022-12-06T06:20:05.929Z,5.10
2022-12-06T06:22:40.829Z,6.00
2022-12-06T06:25:12.751Z,5.67
2022-12-06T06:27:45.457Z,5.70
2022-12-06T06:30:17.617Z,5.72
2022-12-06T06:32:50.934Z,5.38
2022-12-06T06:35:22.873Z,5.18
2022-12-06T06:37:55.564Z,5.00
2022-12-06T06:40:29.037Z,5.20
2022-12-06T06:43:18.824Z,5.00
2022-12-06T06:46:00.024Z,4.82
2022-12-06T06:48:35.596Z,6.60
2022-12-06T06:51:14.013Z,6.20
2022-12-06T06:53:46.417Z,7.68
2022-12-06T06:56:20.121Z,8.18
2022-12-06T06:58:52.808Z,8.23
2022-12-06T07:01:25.894Z,9.55
2022-12-06T07:03:58.754Z,12.40
2022-12-06T07:06:32.178Z,13.30
2022-12-06T07:09:04.299Z,12.80
2022-12-06T07:11:37.131Z,11.93
2022-12-06T07:14:10.125Z,14.10
2022-12-06T07:16:43.055Z,13.27
2022-12-06T07:19:15.385Z,12.70
2022-12-06T07:21:48.575Z,13.18
2022-12-06T07:24:20.633Z,13.63
2022-12-06T07:27:15.016Z,12.73
2022-12-06T07:29:47.363Z,12.63
2022-12-06T07:32:19.655Z,12.38
2022-12-06T07:34:51.514Z,11.63
2022-12-06T07:37:24.812Z,11.90
2022-12-06T07:39:57.444Z,12.77
2022-12-06T07:42:48.531Z,11.63
2022-12-06T07:45:22.006Z,10.63
2022-12-06T07:47:54.471Z,11.90
2022-12-06T07:50:27.412Z,11.85
2022-12-06T07:53:00.123Z,12.50
2022-12-06T07:55:32.989Z,12.33
2022-12-06T07:58:05.120Z,11.80
2022-12-06T08:00:38.219Z,11.63
2022-12-06T08:03:11.084Z,12.02
2022-12-06T08:05:42.983Z,12.35
2022-12-06T08:08:15.753Z,12.27
2022-12-06T08:10:47.658Z,12.40
2022-12-06T08:13:20.968Z,14.02
2022-12-06T08:15:54.421Z,12.02
2022-12-06T08:18:26.975Z,11.65
2022-12-06T08:20:59.944Z,12.10
2022-12-06T08:23:34.512Z,11.60
2022-12-06T08:26:12.832Z,12.40
2022-12-06T08:28:45.660Z,11.55
2022-12-06T08:31:21.381Z,11.45
2022-12-06T08:33:54.162Z,12.50
2022-12-06T08:36:26.864Z,12.32
2022-12-06T08:39:00.197Z,12.30
2022-12-06T08:41:52.002Z,11.00
2022-12-06T08:44:27.213Z,11.93
2022-12-06T08:47:02.380Z,11.50
2022-12-06T08:49:34.399Z,11.40
2022-12-06T08:52:07.151Z,11.82
2022-12-06T08:54:40.263Z,11.48
2022-12-06T08:57:12.544Z,12.25
2022-12-06T08:59:45.418Z,11.63
2022-12-06T09:02:17.448Z,11.00
2022-12-06T09:04:53.379Z,10.52
2022-12-06T09:07:26.404Z,10.05
2022-12-06T09:09:59.453Z,10.90
2022-12-06T09:12:31.651Z,10.80
2022-12-06T09:15:05.312Z,9.25
2022-12-06T09:17:37.227Z,10.23
2022-12-06T09:20:10.362Z,9.45
2022-12-06T09:22:43.188Z,9.13
2022-12-06T09:25:15.908Z,8.73
2022-12-06T09:27:49.015Z,9.65
2022-12-06T09:30:21.030Z,9.75
2022-12-06T09:32:53.760Z,9.80
2022-12-06T09:35:25.879Z,9.88
2022-12-06T09:37:59.884Z,9.90
2022-12-06T09:40:41.330Z,9.43
2022-12-06T09:43:53.904Z,9.48
2022-12-06T09:47:21.328Z,11.48
2022-12-06T09:50:11.518Z,9.20
2022-12-06T09:53:15.583Z,9.77
2022-12-06T09:56:11.993Z,9.48
2022-12-06T09:58:59.263Z,8.75
2022-12-06T10:01:56.698Z,9.52
2022-12-06T10:05:07.867Z,10.05
2022-12-06T10:08:10.890Z,7.87
2022-12-06T10:11:00.657Z,9.25
2022-12-06T10:14:19.123Z,8.57
2022-12-06T10:17:23.396Z,8.77
2022-12-06T10:20:04.703Z,9.57
2022-12-06T10:23:11.077Z,9.43
2022-12-06T10:26:16.929Z,9.07
2022-12-06T10:29:38.098Z,8.80
2022-12-06T10:32:21.873Z,8.85
2022-12-06T10:35:18.819Z,8.73
2022-12-06T10:38:06.395Z,8.87
2022-12-06T10:41:33.554Z,8.93
2022-12-06T10:44:30.296Z,8.75
2022-12-06T10:47:42.011Z,9.18
2022-12-06T10:50:29.183Z,9.40
2022-12-06T10:53:13.128Z,9.57
2022-12-06T10:55:56.648Z,9.18
2022-12-06T10:58:49.347Z,9.80
2022-12-06T11:01:28.787Z,10.10
2022-12-06T11:04:10.426Z,9.80
2022-12-06T11:06:54.326Z,9.67
2022-12-06T11:09:45.640Z,9.50
2022-12-06T11:12:36.205Z,9.52
2022-12-06T11:15:32.669Z,10.02
2022-12-06T11:18:16.845Z,10.15
2022-12-06T11:21:04.232Z,10.40
2022-12-06T11:23:50.697Z,10.50
2022-12-06T11:27:11.576Z,9.80
2022-12-06T11:29:45.417Z,9.73
2022-12-06T11:32:21.524Z,9.93
2022-12-06T11:34:58.070Z,9.97
2022-12-06T11:37:33.643Z,9.40
2022-12-06T11:40:47.660Z,9.82
2022-12-06T11:43:29.950Z,9.02
2022-12-06T11:46:05.115Z,9.90
2022-12-06T11:48:37.639Z,9.40
2022-12-06T11:51:25.800Z,10.38
2022-12-06T11:54:28.182Z,9.52
2022-12-06T11:57:17.989Z,9.70
2022-12-06T12:00:17.707Z,9.60
2022-12-06T12:02:54.791Z,9.03
2022-12-06T12:05:38.720Z,9.10
2022-12-06T12:08:20.134Z,9.18
2022-12-06T12:11:02.351Z,9.38
2022-12-06T12:13:48.852Z,9.75
2022-12-06T12:16:23.582Z,9.13
2022-12-06T12:19:03.588Z,8.63
2022-12-06T12:21:40.083Z,9.30
2022-12-06T12:25:18.522Z,9.43
2022-12-06T12:27:40.530Z,9.82
2022-12-06T12:30:33.272Z,9.70
2022-12-06T12:33:09.177Z,10.43
2022-12-06T12:35:55.878Z,10.45
2022-12-06T12:38:56.425Z,10.95
2022-12-06T12:41:39.725Z,10.52
2022-12-06T12:44:37.431Z,10.13
2022-12-06T12:47:20.810Z,11.27
2022-12-06T12:50:24.117Z,11.57
2022-12-06T12:52:56.586Z,11.73
2022-12-06T12:55:31.651Z,11.55
2022-12-06T12:58:09.722Z,10.70
2022-12-06T13:00:43.996Z,12.00
2022-12-06T13:03:52.463Z,12.30
2022-12-06T13:06:25.965Z,11.88
2022-12-06T13:09:04.567Z,12.02
2022-12-06T13:11:46.524Z,11.43
2022-12-06T13:14:21.525Z,10.52
2022-12-06T13:16:57.160Z,10.85
2022-12-06T13:19:50.177Z,9.70
2022-12-06T13:22:31.957Z,11.65
2022-12-06T13:25:07.880Z,10.10
2022-12-06T13:30:42.463Z,10.70
2022-12-06T13:33:27.354Z,15.02
2022-12-06T13:36:07.781Z,10.40
2022-12-06T13:38:44.832Z,10.20
2022-12-06T13:41:54.344Z,10.45
2022-12-06T13:44:52.114Z,11.70
2022-12-06T13:47:27.809Z,10.57
2022-12-06T13:50:24.001Z,10.60
2022-12-06T13:52:56.188Z,12.67
2022-12-06T13:55:28.437Z,10.55
2022-12-06T13:58:01.134Z,10.38
2022-12-06T14:00:34.455Z,9.35
2022-12-06T14:03:22.050Z,9.35
2022-12-06T14:06:15.241Z,8.93
2022-12-06T14:09:00.113Z,8.50
2022-12-06T14:11:38.166Z,9.23
2022-12-06T14:14:24.788Z,9.25
2022-12-06T14:17:03.020Z,8.80
2022-12-06T14:19:50.153Z,8.73
2022-12-06T14:22:27.844Z,8.40
2022-12-06T14:25:22.897Z,7.85
2022-12-06T14:28:10.965Z,8.38
2022-12-06T14:30:44.834Z,8.60
2022-12-06T14:33:23.640Z,8.27
2022-12-06T14:35:57.414Z,8.68
2022-12-06T14:38:31.246Z,7.30
2022-12-06T14:41:22.424Z,7.57
2022-12-06T14:43:54.538Z,6.90
2022-12-06T14:46:27.682Z,7.70
2022-12-06T14:49:29.752Z,8.32
2022-12-06T14:52:02.549Z,8.25
2022-12-06T14:54:42.998Z,8.30
2022-12-06T14:57:31.913Z,8.13
2022-12-06T15:00:27.228Z,7.50
2022-12-06T15:03:21.391Z,7.55
2022-12-06T15:06:18.170Z,7.43
2022-12-06T15:08:55.452Z,7.20
2022-12-06T15:11:57.988Z,7.85
2022-12-06T15:14:47.811Z,8.23
2022-12-06T15:17:23.150Z,8.50
2022-12-06T15:19:55.434Z,8.25
2022-12-06T15:22:29.497Z,8.90
2022-12-06T15:25:03.639Z,7.45
2022-12-06T15:27:36.367Z,8.23
2022-12-06T15:30:10.327Z,7.57
2022-12-06T15:32:42.972Z,7.60
2022-12-06T15:35:20.487Z,7.40
2022-12-06T15:37:52.461Z,7.95
2022-12-06T15:40:25.698Z,6.90
2022-12-06T15:43:02.352Z,6.50
2022-12-06T15:45:35.581Z,7.00
2022-12-06T15:48:08.265Z,7.00
2022-12-06T15:50:41.384Z,6.68
2022-12-06T15:53:19.709Z,7.67
2022-12-06T15:55:53.302Z,7.00
2022-12-06T15:58:26.587Z,6.25
2022-12-06T16:00:59.866Z,6.13
2022-12-06T16:03:32.773Z,6.53
2022-12-06T16:06:05.005Z,7.03
2022-12-06T16:08:37.789Z,6.60
2022-12-06T16:11:12.906Z,6.55
2022-12-06T16:13:46.002Z,6.07
2022-12-06T16:16:20.730Z,8.10
2022-12-06T16:18:54.207Z,11.90
2022-12-06T16:21:31.237Z,13.35
2022-12-06T16:24:14.201Z,13.88
2022-12-06T16:26:47.043Z,12.73
2022-12-06T16:29:23.993Z,13.00
2022-12-06T16:31:56.045Z,12.90
2022-12-06T16:34:29.611Z,13.30
2022-12-06T16:37:09.373Z,14.25
2022-12-06T16:39:41.679Z,14.68
2022-12-06T16:42:14.584Z,13.93
2022-12-06T16:44:52.999Z,12.63
2022-12-06T16:49:56.659Z,12.02
2022-12-06T16:52:31.461Z,12.65
2022-12-06T16:55:04.330Z,13.18
2022-12-06T16:57:37.426Z,28.43
2022-12-06T17:00:11.304Z,11.82
2022-12-06T17:02:47.224Z,12.98
2022-12-06T17:05:24.269Z,24.92
2022-12-06T17:07:57.141Z,15.00
2022-12-06T17:10:30.201Z,12.60
2022-12-06T17:13:03.776Z,11.73
2022-12-06T17:15:35.655Z,13.02
2022-12-06T17:18:08.422Z,11.55
2022-12-06T17:20:40.288Z,12.52
2022-12-06T17:23:15.850Z,13.43
2022-12-06T17:25:57.768Z,16.08
2022-12-06T17:28:30.524Z,31.55
2022-12-06T17:31:02.534Z,15.75
2022-12-06T17:33:36.172Z,13.45
2022-12-06T17:36:11.262Z,13.23
2022-12-06T17:38:44.916Z,13.35
2022-12-06T17:41:48.531Z,12.85
2022-12-06T17:44:24.527Z,12.98
2022-12-06T17:46:56.820Z,12.18
2022-12-06T17:49:30.090Z,12.57
2022-12-06T17:52:03.407Z,11.32
2022-12-06T17:54:35.625Z,13.55
2022-12-06T17:57:17.820Z,12.23
2022-12-06T17:59:50.673Z,11.73
2022-12-06T18:02:24.866Z,11.40
2022-12-06T18:04:58.199Z,12.50
2022-12-06T18:07:30.134Z,11.98
2022-12-06T18:10:02.849Z,13.15
2022-12-06T18:12:35.762Z,13.93
2022-12-06T18:15:29.247Z,12.80
2022-12-06T18:18:01.916Z,12.45
2022-12-06T18:20:34.288Z,12.02
2022-12-06T18:23:07.094Z,13.32
2022-12-06T18:25:42.599Z,12.73
2022-12-06T18:28:15.336Z,11.37
2022-12-06T18:30:47.967Z,11.77
2022-12-06T18:33:24.315Z,11.73
2022-12-06T18:35:59.357Z,11.93
2022-12-06T18:38:34.412Z,11.27
2022-12-06T18:41:18.220Z,10.90
2022-12-06T18:43:50.918Z,11.35
2022-12-06T18:46:42.497Z,11.43
2022-12-06T18:49:15.585Z,11.25
2022-12-06T18:51:47.474Z,12.48
2022-12-06T18:54:20.813Z,11.13
2022-12-06T18:56:53.296Z,12.55
2022-12-06T18:59:27.751Z,12.52
2022-12-06T19:02:00.022Z,13.38
2022-12-06T19:04:32.862Z,11.88
2022-12-06T19:07:05.238Z,12.90
2022-12-06T19:09:37.636Z,45.03
2022-12-06T19:12:10.271Z,43.80
2022-12-06T19:14:42.976Z,14.57
2022-12-06T19:17:15.711Z,12.50
2022-12-06T19:19:47.923Z,12.10
2022-12-06T19:22:27.777Z,12.40
2022-12-06T19:25:00.116Z,12.38
2022-12-06T19:27:32.709Z,11.88
2022-12-06T19:30:08.762Z,12.18
2022-12-06T19:32:40.835Z,10.90
2022-12-06T19:35:13.869Z,10.57
2022-12-06T19:37:46.262Z,11.50
2022-12-06T19:40:18.186Z,12.07
2022-12-06T19:43:09.247Z,12.00
2022-12-06T19:45:41.172Z,11.37
2022-12-06T19:48:14.996Z,10.80
2022-12-06T19:50:49.632Z,11.23
2022-12-06T19:53:22.506Z,11.55
2022-12-06T19:56:09.528Z,11.48
2022-12-06T19:58:41.469Z,10.43
2022-12-06T20:01:21.818Z,10.68
2022-12-06T20:03:54.628Z,10.77
2022-12-06T20:06:28.131Z,10.85
2022-12-06T20:09:01.313Z,10.82
2022-12-06T20:11:56.122Z,10.67
2022-12-06T20:14:48.622Z,10.50
2022-12-06T20:17:23.587Z,9.90
2022-12-06T20:19:57.192Z,10.38
2022-12-06T20:22:29.485Z,11.77
2022-12-06T20:25:01.449Z,10.77
2022-12-06T20:27:52.378Z,10.85
2022-12-06T20:30:24.316Z,11.20
2022-12-06T20:32:57.037Z,11.48
2022-12-06T20:35:29.255Z,10.60
2022-12-06T20:38:01.561Z,10.83
2022-12-06T20:40:35.442Z,10.93
2022-12-06T20:43:07.610Z,10.88
2022-12-06T20:45:40.363Z,11.30
2022-12-06T20:48:12.683Z,11.02
2022-12-06T20:50:45.400Z,11.23
2022-12-06T20:53:17.543Z,11.18
2022-12-06T20:55:50.231Z,11.57
2022-12-06T20:58:22.657Z,11.43
2022-12-06T21:00:58.499Z,11.30
2022-12-06T21:03:35.041Z,11.60
2022-12-06T21:06:10.577Z,10.98
2022-12-06T21:08:43.287Z,11.45
2022-12-06T21:11:24.097Z,11.27
2022-12-06T21:13:58.557Z,11.55
2022-12-06T21:19:26.433Z,10.15
2022-12-06T21:22:01.027Z,11.18
2022-12-06T21:24:34.240Z,11.15
2022-12-06T21:27:06.129Z,11.82
2022-12-06T21:29:42.861Z,11.27
2022-12-06T21:32:15.708Z,11.82
2022-12-06T21:34:48.276Z,11.90
2022-12-06T21:37:20.169Z,12.00
2022-12-06T21:39:52.875Z,10.75
2022-12-06T21:42:25.189Z,11.20
2022-12-06T21:44:57.519Z,11.00
2022-12-06T21:47:30.013Z,12.35
2022-12-06T21:50:02.800Z,11.00
2022-12-06T21:52:36.215Z,11.13
2022-12-06T21:55:09.828Z,10.13
2022-12-06T21:57:41.744Z,12.45
2022-12-06T22:00:18.103Z,12.57
2022-12-06T22:02:52.390Z,12.10
2022-12-06T22:05:25.191Z,11.77
2022-12-06T22:07:57.106Z,12.83
2022-12-06T22:10:29.850Z,11.32
2022-12-06T22:13:01.697Z,12.23
2022-12-06T22:15:34.747Z,12.05
2022-12-06T22:18:06.710Z,13.27
2022-12-06T22:20:39.808Z,13.10
2022-12-06T22:23:12.112Z,11.75
2022-12-06T22:25:44.412Z,13.15
2022-12-06T22:28:16.285Z,13.27
2022-12-06T22:30:49.033Z,12.70
2022-12-06T22:33:20.891Z,12.07
2022-12-06T22:35:53.588Z,12.27
2022-12-06T22:38:25.460Z,12.82
2022-12-06T22:40:59.332Z,13.13
2022-12-06T22:43:32.254Z,13.80
2022-12-06T22:46:23.618Z,12.77
2022-12-06T22:48:57.391Z,12.80
2022-12-06T22:51:38.162Z,13.38
2022-12-06T22:54:13.427Z,14.27
2022-12-06T22:56:48.744Z,12.50
2022-12-06T22:59:22.524Z,13.13
2022-12-06T23:01:54.833Z,12.93
2022-12-06T23:04:27.531Z,13.77
2022-12-06T23:06:59.457Z,13.20
2022-12-06T23:09:32.655Z,13.80
2022-12-06T23:12:05.050Z,12.50
2022-12-06T23:14:37.784Z,13.65
2022-12-06T23:17:09.856Z,13.60
2022-12-06T23:19:44.602Z,13.35
2022-12-06T23:22:16.930Z,13.45
2022-12-06T23:24:52.230Z,13.57
2022-12-06T23:27:25.011Z,14.25
2022-12-06T23:29:56.928Z,14.65
2022-12-06T23:32:30.041Z,13.80
2022-12-06T23:35:01.964Z,14.82
2022-12-06T23:37:33.809Z,14.67
2022-12-06T23:40:07.470Z,14.90
2022-12-06T23:42:39.377Z,15.52
2022-12-06T23:45:12.110Z,14.80
2022-12-06T23:47:43.961Z,14.20
2022-12-06T23:50:16.712Z,13.83
2022-12-06T23:52:48.592Z,14.93
2022-12-06T23:55:21.323Z,14.35
2022-12-06T23:57:53.201Z,13.27
